Time;durP1;ratioP1;P1;durP2;ratioP2;P2;SDS_P1;SDS_P2;PMS_P1;PMS_P2;Temp;Humidity;BMP_temperature;BMP_pressure;BME280_temperature;BME280_humidity;BME280_pressure;Samples;Min_cycle;Max_cycle;Signal;HPM_P1;HPM_P2
2023/03/23 00:01:19;;;;;;;3.45;0.30;;;7.70;99.90;;;;;;5098399;28;20040;-57
2023/03/23 00:03:48;;;;;;;4.57;0.50;;;7.70;99.90;;;;;;5104950;28;20398;-56
2023/03/23 00:06:17;;;;;;;4.25;0.70;;;7.70;99.90;;;;;;5097057;28;20032;-56
2023/03/23 00:08:46;;;;;;;4.70;0.77;;;7.70;99.90;;;;;;5103240;28;20043;-56
2023/03/23 00:11:19;;;;;;;6.53;0.60;;;7.80;99.90;;;;;;5099313;28;20094;-56
2023/03/23 00:13:50;;;;;;;5.90;0.80;;;7.80;99.90;;;;;;5080425;28;20047;-56
2023/03/23 00:16:30;;;;;;;3.00;0.60;;;7.80;99.90;;;;;;5102463;28;20051;-56
2023/03/23 00:19:02;;;;;;;5.53;0.73;;;7.80;99.90;;;;;;5068007;28;20051;-55
2023/03/23 00:21:33;;;;;;;4.97;0.57;;;7.80;99.90;;;;;;5087419;28;20035;-55
2023/03/23 00:24:02;;;;;;;2.90;1.08;;;7.80;99.90;;;;;;5083335;28;20048;-56
2023/03/23 00:26:29;;;;;;;3.63;0.70;;;7.80;99.90;;;;;;5100710;28;20056;-57
2023/03/23 00:28:56;;;;;;;8.07;0.60;;;7.80;99.90;;;;;;5104787;28;20039;-55
2023/03/23 00:31:22;;;;;;;1.83;0.50;;;7.90;99.90;;;;;;5111858;28;20050;-55
2023/03/23 00:33:49;;;;;;;3.03;0.63;;;;;;;;;;5108290;28;20059;-56
2023/03/23 00:36:17;;;;;;;3.47;0.40;;;7.80;99.90;;;;;;5106696;28;20036;-55
2023/03/23 00:38:44;;;;;;;10.55;1.35;;;7.80;99.90;;;;;;5101919;28;20060;-56
2023/03/23 00:41:15;;;;;;;6.32;0.70;;;7.80;99.90;;;;;;5088518;28;20563;-56
2023/03/23 00:43:41;;;;;;;3.75;0.50;;;7.70;99.90;;;;;;5092278;28;20053;-56
2023/03/23 00:46:09;;;;;;;3.42;0.50;;;7.70;99.90;;;;;;5092978;28;20051;-56
2023/03/23 00:48:44;;;;;;;5.05;0.80;;;7.60;99.90;;;;;;5102422;28;20535;-55
2023/03/23 00:51:11;;;;;;;4.78;0.43;;;7.50;99.90;;;;;;5104007;28;20494;-56
2023/03/23 00:53:40;;;;;;;7.63;0.80;;;7.50;99.90;;;;;;5093445;28;20047;-55
2023/03/23 00:56:08;;;;;;;5.13;0.90;;;7.40;99.90;;;;;;5090604;28;20055;-58
2023/03/23 00:58:35;;;;;;;8.77;0.65;;;7.40;99.90;;;;;;5085947;28;20050;-58
2023/03/23 01:01:03;;;;;;;4.28;1.13;;;7.30;99.90;;;;;;5093545;28;20478;-55
2023/03/23 01:03:30;;;;;;;3.08;0.70;;;7.30;99.90;;;;;;5108406;28;20059;-56
2023/03/23 01:06:08;;;;;;;3.33;0.60;;;7.20;99.90;;;;;;5107457;28;20063;-57
2023/03/23 01:08:36;;;;;;;5.18;0.82;;;7.20;99.90;;;;;;5083332;28;20051;-57
2023/03/23 01:11:05;;;;;;;10.65;0.95;;;7.10;99.90;;;;;;5079751;28;20556;-56
2023/03/23 01:13:32;;;;;;;6.45;1.08;;;7.10;99.90;;;;;;5089415;28;20048;-58
2023/03/23 01:15:58;;;;;;;5.53;1.17;;;7.10;99.90;;;;;;5109969;28;20040;-57
2023/03/23 01:18:25;;;;;;;9.02;0.75;;;7.00;99.90;;;;;;5077575;28;20044;-57
2023/03/23 01:20:52;;;;;;;4.30;1.20;;;6.90;99.90;;;;;;5100999;28;20039;-56
2023/03/23 01:23:19;;;;;;;6.13;0.57;;;6.90;99.90;;;;;;5079411;28;20487;-57
2023/03/23 01:25:45;;;;;;;4.43;0.60;;;6.90;99.90;;;;;;5109484;28;20047;-55
2023/03/23 01:28:12;;;;;;;8.98;1.10;;;6.90;99.90;;;;;;5097813;28;20043;-56
2023/03/23 01:30:38;;;;;;;13.13;1.13;;;6.90;99.90;;;;;;5110450;28;20060;-57
2023/03/23 01:33:05;;;;;;;4.20;0.55;;;6.80;99.90;;;;;;5091595;28;20047;-57
2023/03/23 01:35:31;;;;;;;10.43;0.80;;;6.90;99.90;;;;;;5109843;28;20040;-56
2023/03/23 01:37:58;;;;;;;8.23;1.17;;;6.90;99.90;;;;;;5062072;28;20052;-60
2023/03/23 01:40:27;;;;;;;4.68;0.90;;;6.80;99.90;;;;;;5097731;28;20039;-56
2023/03/23 01:42:56;;;;;;;5.85;0.80;;;6.80;99.90;;;;;;5088956;28;20082;-57
2023/03/23 01:45:27;;;;;;;4.60;1.10;;;6.80;99.90;;;;;;5077607;28;20048;-57
2023/03/23 01:48:09;;;;;;;6.75;1.45;;;6.80;99.90;;;;;;5091155;28;20039;-57
2023/03/23 01:50:53;;;;;;;11.10;1.95;;;6.80;99.90;;;;;;5092478;28;20051;-57
2023/03/23 01:53:21;;;;;;;13.65;1.30;;;6.70;99.90;;;;;;5105479;28;20491;-57
2023/03/23 01:55:52;;;;;;;9.23;1.55;;;6.70;99.90;;;;;;5071948;28;20052;-57
2023/03/23 01:58:25;;;;;;;4.03;0.88;;;6.70;99.90;;;;;;5091234;28;20195;-57
2023/03/23 02:00:55;;;;;;;6.78;0.80;;;6.70;99.90;;;;;;5091738;28;20044;-59
2023/03/23 02:03:23;;;;;;;8.60;1.08;;;6.60;99.90;;;;;;5092535;28;20043;-58
2023/03/23 02:05:51;;;;;;;14.48;2.28;;;6.60;99.90;;;;;;5088255;28;20063;-57
2023/03/23 02:08:28;;;;;;;8.60;0.90;;;6.60;99.90;;;;;;5085493;28;20048;-56
2023/03/23 02:10:55;;;;;;;7.68;0.75;;;6.60;99.90;;;;;;5091922;28;20058;-57
2023/03/23 02:13:22;;;;;;;8.18;0.80;;;6.60;99.90;;;;;;5087438;28;20047;-56
2023/03/23 02:15:59;;;;;;;9.10;1.02;;;6.50;99.90;;;;;;5089288;28;20044;-57
2023/03/23 02:18:37;;;;;;;9.85;1.02;;;6.50;99.90;;;;;;5088655;28;20061;-57
2023/03/23 02:21:07;;;;;;;14.52;1.13;;;6.50;99.90;;;;;;5091552;28;20048;-57
2023/03/23 02:23:45;;;;;;;10.82;1.10;;;6.40;99.90;;;;;;5108895;28;20052;-56
2023/03/23 02:26:28;;;;;;;5.13;1.10;;;6.40;99.90;;;;;;5071425;28;20048;-58
2023/03/23 02:29:06;;;;;;;14.25;2.13;;;6.50;99.90;;;;;;5087338;28;20055;-58
2023/03/23 02:32:17;;;;;;;14.13;1.27;;;6.40;99.90;;;;;;5106934;28;20047;-58
2023/03/23 02:34:48;;;;;;;11.30;1.25;;;6.40;99.90;;;;;;5031554;28;20079;-59
2023/03/23 02:37:23;;;;;;;10.10;1.98;;;6.30;99.90;;;;;;5066566;28;20515;-58
2023/03/23 02:40:01;;;;;;;9.48;1.40;;;6.30;99.90;;;;;;5060099;28;20047;-57
2023/03/23 02:42:31;;;;;;;12.95;1.75;;;6.30;99.90;;;;;;5067698;28;20542;-56
2023/03/23 02:45:03;;;;;;;10.93;0.82;;;6.30;99.90;;;;;;5069647;28;20047;-57
2023/03/23 02:47:31;;;;;;;11.88;1.33;;;6.30;99.90;;;;;;5069329;28;20416;-58
2023/03/23 02:50:00;;;;;;;10.17;1.40;;;6.30;99.90;;;;;;5066481;28;20045;-60
2023/03/23 02:52:30;;;;;;;7.90;0.80;;;6.30;99.90;;;;;;5058204;28;20771;-57
2023/03/23 02:55:01;;;;;;;6.63;0.73;;;6.30;99.90;;;;;;5059445;28;20389;-56
2023/03/23 02:57:29;;;;;;;9.55;2.13;;;6.40;99.90;;;;;;5050596;28;20052;-57
2023/03/23 02:59:57;;;;;;;12.40;1.30;;;6.40;99.90;;;;;;5050875;28;20076;-58
2023/03/23 03:02:26;;;;;;;15.52;1.88;;;6.40;99.90;;;;;;5050683;28;20053;-57
2023/03/23 03:05:18;;;;;;;13.53;1.53;;;6.30;99.90;;;;;;5059317;28;20048;-58
2023/03/23 03:08:06;;;;;;;14.07;2.03;;;6.30;99.90;;;;;;5034433;28;20040;-58
2023/03/23 03:10:36;;;;;;;13.73;3.33;;;6.30;99.90;;;;;;5067311;28;20041;-59
2023/03/23 03:13:25;;;;;;;13.70;1.92;;;6.30;99.90;;;;;;5055753;28;20051;-58
2023/03/23 03:16:07;;;;;;;13.35;1.55;;;6.30;99.90;;;;;;5061720;28;20037;-58
2023/03/23 03:18:36;;;;;;;8.27;2.08;;;6.30;99.90;;;;;;5066975;28;20048;-57
2023/03/23 03:21:08;;;;;;;8.18;1.10;;;6.20;99.90;;;;;;5051760;28;20041;-57
2023/03/23 03:23:37;;;;;;;14.55;1.23;;;6.20;99.90;;;;;;5051102;28;20041;-63
2023/03/23 03:26:05;;;;;;;12.97;1.40;;;6.10;99.90;;;;;;5070543;28;20051;-57
2023/03/23 03:28:47;;;;;;;15.75;2.67;;;6.00;99.90;;;;;;5070247;28;20049;-62
2023/03/23 03:31:18;;;;;;;9.32;1.17;;;5.90;99.90;;;;;;5086839;28;20063;-57
2023/03/23 03:33:46;;;;;;;10.52;2.42;;;6.00;99.90;;;;;;5090319;28;20628;-58
2023/03/23 03:36:20;;;;;;;8.05;0.80;;;5.90;99.90;;;;;;5090106;28;20645;-57
2023/03/23 03:38:49;;;;;;;9.52;1.58;;;5.90;99.90;;;;;;5089957;28;20040;-62
2023/03/23 03:41:18;;;;;;;5.30;1.20;;;5.90;99.90;;;;;;5107366;28;20043;-56
2023/03/23 03:43:46;;;;;;;14.32;2.97;;;5.80;99.90;;;;;;5088068;28;20281;-57
2023/03/23 03:46:12;;;;;;;11.13;1.70;;;5.70;99.90;;;;;;5089529;28;20040;-59
2023/03/23 03:48:39;;;;;;;8.07;1.17;;;5.70;99.90;;;;;;5096970;28;20458;-62
2023/03/23 03:51:05;;;;;;;15.48;1.60;;;5.70;99.90;;;;;;5089983;28;20036;-60
2023/03/23 03:53:38;;;;;;;17.30;2.45;;;5.70;99.90;;;;;;5088133;28;20368;-62
2023/03/23 03:56:07;;;;;;;10.85;1.38;;;5.60;99.90;;;;;;5086179;28;20040;-61
2023/03/23 03:58:42;;;;;;;10.05;1.30;;;5.60;99.90;;;;;;5088759;28;20051;-60
2023/03/23 04:01:24;;;;;;;13.77;1.45;;;5.60;99.90;;;;;;5090603;28;20036;-59
2023/03/23 04:03:51;;;;;;;9.00;1.30;;;5.50;99.90;;;;;;5106204;28;20056;-58
2023/03/23 04:06:27;;;;;;;11.93;1.48;;;5.50;99.90;;;;;;5065575;28;20040;-60
2023/03/23 04:08:58;;;;;;;9.77;1.85;;;5.50;99.90;;;;;;5073490;28;20647;-59
2023/03/23 04:11:26;;;;;;;10.90;1.10;;;5.40;99.90;;;;;;5089338;28;20487;-58
2023/03/23 04:13:57;;;;;;;8.90;1.15;;;5.30;99.90;;;;;;5096942;28;20037;-59
2023/03/23 04:16:29;;;;;;;13.30;1.40;;;5.30;99.90;;;;;;5075663;28;20048;-57
2023/03/23 04:18:56;;;;;;;17.52;1.60;;;5.30;99.90;;;;;;5088946;28;20047;-59
2023/03/23 04:21:28;;;;;;;13.53;1.60;;;5.20;99.90;;;;;;5106280;28;20047;-60
2023/03/23 04:23:58;;;;;;;22.60;1.80;;;5.20;99.90;;;;;;5107085;28;20510;-61
2023/03/23 04:26:28;;;;;;;15.63;1.90;;;5.10;99.90;;;;;;5085098;28;20396;-58
2023/03/23 04:28:58;;;;;;;15.65;1.55;;;5.10;99.90;;;;;;5097222;28;20044;-61
2023/03/23 04:31:35;;;;;;;20.20;1.70;;;5.20;99.90;;;;;;5090177;28;20395;-58
2023/03/23 04:34:25;;;;;;;19.77;2.08;;;5.10;99.90;;;;;;5087076;28;20040;-59
2023/03/23 04:36:53;;;;;;;12.43;2.10;;;5.20;99.90;;;;;;5077970;28;20403;-58
2023/03/23 04:39:24;;;;;;;16.90;1.83;;;5.20;99.90;;;;;;5084450;28;20035;-59
2023/03/23 04:41:52;;;;;;;15.43;1.63;;;5.20;99.90;;;;;;5107745;28;20494;-58
2023/03/23 04:44:53;;;;;;;15.80;1.50;;;5.20;99.90;;;;;;5075200;28;20051;-59
2023/03/23 04:47:29;;;;;;;20.23;2.33;;;5.20;99.90;;;;;;5088925;28;20039;-60
2023/03/23 04:49:58;;;;;;;23.33;2.22;;;5.20;99.90;;;;;;5082103;28;20503;-59
2023/03/23 04:52:32;;;;;;;10.98;1.92;;;5.30;99.90;;;;;;5083674;28;20048;-58
2023/03/23 04:55:01;;;;;;;23.73;2.67;;;5.30;99.90;;;;;;5102400;28;20043;-57
2023/03/23 04:57:28;;;;;;;16.85;2.13;;;5.30;99.90;;;;;;5090588;28;20040;-58
2023/03/23 05:00:20;;;;;;;10.45;2.80;;;5.30;99.90;;;;;;5050225;28;20055;-57
2023/03/23 05:02:55;;;;;;;14.38;2.05;;;5.30;99.90;;;;;;5108087;28;20062;-57
2023/03/23 05:05:25;;;;;;;24.08;3.03;;;5.30;99.90;;;;;;5108389;28;20047;-58
2023/03/23 05:07:54;;;;;;;17.25;3.47;;;5.30;99.90;;;;;;5072282;28;20477;-56
2023/03/23 05:10:24;;;;;;;;;;;5.30;99.90;;;;;;5092347;28;20054;-58
2023/03/23 05:12:54;;;;;;;16.10;1.80;;;5.40;99.90;;;;;;5107355;28;19920;-59
2023/03/23 05:15:20;;;;;;;11.25;2.05;;;5.40;99.90;;;;;;5092319;28;20071;-59
2023/03/23 05:17:48;;;;;;;14.95;1.50;;;5.40;99.90;;;;;;5094486;28;20043;-57
2023/03/23 05:20:22;;;;;;;22.65;1.88;;;5.40;99.90;;;;;;5096248;28;20054;-57
2023/03/23 05:22:52;;;;;;;14.00;2.42;;;5.40;99.90;;;;;;5113017;28;20430;-57
2023/03/23 05:25:27;;;;;;;17.98;1.92;;;5.40;99.90;;;;;;5103798;28;20044;-61
2023/03/23 05:28:01;;;;;;;14.35;1.92;;;5.40;99.90;;;;;;5063200;28;20046;-58
2023/03/23 05:30:48;;;;;;;21.75;3.00;;;5.40;99.90;;;;;;5113742;28;20059;-60
2023/03/23 05:33:16;;;;;;;18.48;2.13;;;5.50;99.90;;;;;;5096092;28;20063;-57
2023/03/23 05:35:47;;;;;;;19.20;2.38;;;5.40;99.90;;;;;;5096082;28;20046;-57
2023/03/23 05:38:16;;;;;;;13.10;2.08;;;5.40;99.90;;;;;;5113802;28;20039;-58
2023/03/23 05:40:46;;;;;;;11.63;1.95;;;5.40;99.90;;;;;;5079092;28;20050;-59
2023/03/23 05:43:16;;;;;;;8.93;1.85;;;5.50;99.90;;;;;;5112546;28;20047;-57
2023/03/23 05:45:52;;;;;;;19.77;2.33;;;5.40;99.90;;;;;;5095893;28;20164;-58
2023/03/23 05:48:19;;;;;;;15.38;2.78;;;5.50;99.90;;;;;;5086755;28;20042;-57
2023/03/23 05:50:45;;;;;;;17.23;2.13;;;5.50;99.90;;;;;;5078263;28;20583;-58
2023/03/23 05:53:12;;;;;;;11.18;2.10;;;5.50;99.90;;;;;;5075705;28;20051;-57
2023/03/23 05:55:39;;;;;;;18.08;2.70;;;5.50;99.90;;;;;;5066342;28;20384;-59
2023/03/23 05:58:19;;;;;;;;;;;5.50;99.90;;;;;;5069680;28;20394;-57
2023/03/23 06:00:47;;;;;;;18.15;1.98;;;5.50;99.90;;;;;;5092168;28;19927;-59
2023/03/23 06:03:22;;;;;;;21.10;2.67;;;5.50;99.90;;;;;;5065355;28;20540;-59
2023/03/23 06:06:11;;;;;;;16.30;1.92;;;5.50;99.90;;;;;;5068583;28;20067;-58
2023/03/23 06:08:56;;;;;;;25.83;2.63;;;5.50;99.90;;;;;;5065902;28;20048;-58
2023/03/23 06:11:36;;;;;;;24.98;2.58;;;5.60;99.90;;;;;;5063292;28;20039;-56
2023/03/23 06:14:32;;;;;;;19.52;2.95;;;5.70;99.90;;;;;;5102514;28;20048;-56
2023/03/23 06:16:59;;;;;;;18.63;3.15;;;5.70;99.90;;;;;;5089948;28;20032;-61
2023/03/23 06:19:26;;;;;;;10.52;2.35;;;5.70;99.90;;;;;;5078768;28;20039;-59
2023/03/23 06:22:06;;;;;;;11.85;1.27;;;5.80;99.90;;;;;;5078815;28;20063;-63
2023/03/23 06:24:42;;;;;;;22.40;2.85;;;5.70;99.90;;;;;;5108468;28;20415;-59
2023/03/23 06:27:09;;;;;;;23.35;3.25;;;5.80;99.90;;;;;;5076360;28;20044;-62
2023/03/23 06:29:37;;;;;;;19.80;2.33;;;5.90;99.90;;;;;;5098117;28;20036;-62
2023/03/23 06:32:04;;;;;;;15.68;2.35;;;5.90;99.90;;;;;;5086059;28;20040;-57
2023/03/23 06:34:32;;;;;;;19.50;4.70;;;6.00;99.90;;;;;;5085142;28;20055;-57
2023/03/23 06:37:17;;;;;;;20.23;2.00;;;6.10;99.90;;;;;;5096336;28;20039;-57
2023/03/23 06:39:57;;;;;;;16.15;2.30;;;6.20;99.90;;;;;;5084830;28;20052;-58
2023/03/23 06:42:32;;;;;;;27.33;2.45;;;6.20;99.90;;;;;;5071936;28;20411;-59
2023/03/23 06:45:21;;;;;;;21.20;2.40;;;6.30;99.90;;;;;;5069591;28;20059;-60
2023/03/23 06:47:53;;;;;;;18.85;2.92;;;6.40;99.90;;;;;;5089549;28;20039;-61
2023/03/23 06:50:20;;;;;;;20.23;2.67;;;6.50;99.90;;;;;;5061246;28;20624;-58
2023/03/23 06:52:49;;;;;;;16.30;2.40;;;6.50;99.90;;;;;;5054724;28;20059;-59
2023/03/23 06:55:17;;;;;;;18.13;2.40;;;6.60;99.90;;;;;;5076366;28;20039;-59
2023/03/23 06:57:44;;;;;;;20.50;3.45;;;6.70;99.90;;;;;;5087162;28;20553;-60
2023/03/23 07:00:16;;;;;;;14.52;1.95;;;6.70;99.90;;;;;;5075142;28;20047;-58
2023/03/23 07:02:44;;;;;;;16.00;2.05;;;6.70;99.90;;;;;;5073913;28;20051;-57
2023/03/23 07:05:12;;;;;;;11.38;1.73;;;6.70;99.90;;;;;;5080954;28;20063;-60
2023/03/23 07:07:40;;;;;;;14.57;2.80;;;6.60;99.90;;;;;;5088412;28;20032;-57
2023/03/23 07:10:21;;;;;;;17.95;2.58;;;6.70;99.90;;;;;;5089085;28;20067;-63
2023/03/23 07:12:48;;;;;;;21.85;2.65;;;6.70;99.90;;;;;;5086069;28;20047;-58
2023/03/23 07:15:16;;;;;;;12.48;2.13;;;6.80;99.90;;;;;;5090227;28;20044;-60
2023/03/23 07:17:47;;;;;;;15.18;2.05;;;6.80;99.90;;;;;;5056336;28;20051;-59
2023/03/23 07:20:20;;;;;;;20.10;3.03;;;6.80;99.90;;;;;;5087176;28;20423;-58
2023/03/23 07:22:48;;;;;;;17.27;2.10;;;6.90;99.90;;;;;;5094566;28;20074;-56
2023/03/23 07:25:28;;;;;;;20.80;1.95;;;7.00;99.90;;;;;;5090448;28;20067;-56
2023/03/23 07:27:56;;;;;;;16.98;2.60;;;7.10;99.90;;;;;;5084992;28;20048;-57
2023/03/23 07:30:23;;;;;;;12.48;2.25;;;7.10;99.90;;;;;;5070568;28;20043;-56
2023/03/23 07:32:50;;;;;;;12.45;3.13;;;7.20;99.90;;;;;;5098095;28;20051;-56
2023/03/23 07:35:19;;;;;;;18.17;2.28;;;7.30;99.90;;;;;;5104186;28;20040;-56
2023/03/23 07:38:03;;;;;;;18.90;1.95;;;7.40;99.90;;;;;;5088979;28;20039;-57
2023/03/23 07:40:33;;;;;;;20.77;2.75;;;7.50;99.90;;;;;;5104140;28;20055;-56
2023/03/23 07:43:04;;;;;;;21.65;2.20;;;7.50;99.90;;;;;;5090406;28;20478;-56
2023/03/23 07:45:49;;;;;;;14.23;3.35;;;7.60;99.90;;;;;;5090117;28;20419;-56
2023/03/23 07:48:18;;;;;;;20.75;2.38;;;7.60;99.90;;;;;;5068662;28;20471;-57
2023/03/23 07:50:45;;;;;;;19.25;2.58;;;7.70;99.90;;;;;;5069968;28;20047;-56
2023/03/23 07:53:13;;;;;;;13.13;2.15;;;7.70;99.90;;;;;;5061229;28;20036;-56
2023/03/23 07:55:47;;;;;;;;;;;7.70;99.90;;;;;;5085424;28;20612;-57
2023/03/23 07:58:47;;;;;;;20.95;2.30;;;7.80;99.90;;;;;;5055886;28;19930;-56
2023/03/23 08:01:15;;;;;;;23.08;1.83;;;7.80;99.90;;;;;;5083079;28;20538;-56
2023/03/23 08:03:47;;;;;;;12.60;2.83;;;7.90;99.90;;;;;;5071911;28;20047;-56
2023/03/23 08:06:34;;;;;;;16.17;2.25;;;7.90;99.90;;;;;;5075888;28;20490;-56
2023/03/23 08:09:21;;;;;;;19.40;4.55;;;8.00;99.90;;;;;;5073938;28;20051;-57
2023/03/23 08:12:02;;;;;;;15.10;3.17;;;8.00;99.90;;;;;;5084139;28;20398;-56
2023/03/23 08:14:41;;;;;;;15.10;2.33;;;8.10;99.90;;;;;;5090178;28;20231;-57
2023/03/23 08:17:25;;;;;;;11.25;2.50;;;8.10;99.90;;;;;;5108245;28;20483;-56
2023/03/23 08:20:25;;;;;;;18.58;1.88;;;8.20;99.90;;;;;;5088377;28;20051;-56
2023/03/23 08:23:02;;;;;;;15.80;2.15;;;8.20;99.90;;;;;;5087288;28;20051;-55
2023/03/23 08:25:31;;;;;;;13.82;2.58;;;8.30;99.90;;;;;;5090074;28;20043;-55
2023/03/23 08:28:18;;;;;;;14.70;2.50;;;8.30;99.90;;;;;;5106826;28;20058;-55
2023/03/23 08:31:09;;;;;;;25.42;3.80;;;8.40;99.90;;;;;;5090707;28;20036;-56
2023/03/23 08:34:00;;;;;;;14.40;2.35;;;8.60;99.90;;;;;;5090291;28;20051;-55
2023/03/23 08:36:55;;;;;;;13.05;1.88;;;8.80;99.90;;;;;;5080259;28;20059;-56
2023/03/23 08:39:55;;;;;;;15.73;3.13;;;9.00;99.90;;;;;;5090026;28;20044;-56
2023/03/23 08:42:46;;;;;;;13.88;3.55;;;9.10;99.90;;;;;;5089321;28;20031;-58
2023/03/23 08:45:31;;;;;;;17.35;2.78;;;9.10;99.90;;;;;;5097638;28;20055;-56
2023/03/23 08:48:26;;;;;;;16.63;3.42;;;9.20;99.90;;;;;;5091853;28;20048;-56
2023/03/23 08:51:19;;;;;;;12.77;2.03;;;9.20;99.90;;;;;;5081174;28;20056;-57
2023/03/23 08:53:48;;;;;;;14.60;1.95;;;9.30;99.90;;;;;;5096498;28;20039;-61
2023/03/23 08:56:34;;;;;;;8.55;2.10;;;9.40;99.90;;;;;;5111387;28;20419;-60
2023/03/23 08:59:11;;;;;;;14.88;2.88;;;9.60;99.90;;;;;;5099889;28;20391;-56
2023/03/23 09:01:58;;;;;;;13.68;1.77;;;;;;;;;;5072239;28;20054;-65
2023/03/23 09:04:43;;;;;;;10.48;2.67;;;9.70;99.90;;;;;;5067010;28;20063;-59
2023/03/23 09:07:33;;;;;;;22.15;2.80;;;9.70;99.90;;;;;;5107689;28;20035;-58
2023/03/23 09:09:59;;;;;;;21.63;3.38;;;9.90;99.90;;;;;;5111261;28;20032;-57
2023/03/23 09:12:26;;;;;;;11.55;1.60;;;9.90;99.90;;;;;;5092970;28;20043;-58
2023/03/23 09:14:53;;;;;;;16.30;2.60;;;9.90;99.90;;;;;;5111318;28;20040;-56
2023/03/23 09:17:19;;;;;;;20.60;2.22;;;9.90;99.90;;;;;;5093005;28;20163;-59
2023/03/23 09:19:46;;;;;;;13.88;2.10;;;9.90;99.90;;;;;;5092307;28;20050;-57
2023/03/23 09:22:12;;;;;;;14.80;2.42;;;9.90;99.90;;;;;;5092614;28;20048;-58
2023/03/23 09:24:39;;;;;;;11.60;2.05;;;10.00;99.90;;;;;;5111370;28;20043;-57
2023/03/23 09:27:06;;;;;;;12.57;2.10;;;10.00;99.90;;;;;;5110961;28;20046;-61
2023/03/23 09:29:33;;;;;;;6.97;1.33;;;10.00;99.90;;;;;;5089400;28;20051;-61
2023/03/23 09:32:00;;;;;;;18.00;2.65;;;10.00;99.90;;;;;;5090719;28;20047;-57
2023/03/23 09:34:29;;;;;;;14.43;2.53;;;10.00;99.90;;;;;;5088845;28;20319;-57
2023/03/23 09:36:55;;;;;;;13.27;1.98;;;10.00;99.90;;;;;;5105589;28;20039;-58
2023/03/23 09:39:22;;;;;;;16.00;2.50;;;10.00;99.90;;;;;;5092411;28;20048;-56
2023/03/23 09:42:26;;;;;;;14.30;1.67;;;10.00;99.90;;;;;;5111357;28;20039;-56
2023/03/23 09:45:14;;;;;;;16.42;2.38;;;10.00;99.90;;;;;;5075830;28;20494;-60
2023/03/23 09:48:23;;;;;;;22.08;2.35;;;10.00;99.90;;;;;;5098908;28;20039;-59
2023/03/23 09:50:52;;;;;;;;;;;10.00;99.90;;;;;;5108904;28;20051;-60
2023/03/23 09:53:34;;;;;;;15.32;2.03;;;10.10;99.90;;;;;;5088831;28;19916;-58
2023/03/23 09:56:06;;;;;;;20.55;2.40;;;10.20;99.90;;;;;;5089899;28;20051;-56
2023/03/23 09:58:46;;;;;;;15.50;1.80;;;10.20;99.90;;;;;;5102023;28;20040;-57
2023/03/23 10:01:16;;;;;;;;;;;10.20;99.90;;;;;;5109454;28;20043;-60
2023/03/23 10:03:44;;;;;;;10.13;1.83;;;10.30;99.90;;;;;;5088492;28;20290;-60
2023/03/23 10:06:15;;;;;;;13.38;1.98;;;10.40;99.90;;;;;;5084411;28;20495;-57
2023/03/23 10:08:50;;;;;;;20.55;2.72;;;10.60;99.90;;;;;;5101181;28;20039;-57
2023/03/23 10:11:32;;;;;;;21.17;2.85;;;10.70;99.90;;;;;;5107050;28;20035;-57
2023/03/23 10:14:17;;;;;;;16.08;2.10;;;10.90;99.90;;;;;;5108672;28;20039;-57
2023/03/23 10:17:10;;;;;;;9.95;1.70;;;11.00;99.90;;;;;;5101239;28;20040;-56
2023/03/23 10:19:56;;;;;;;12.52;2.65;;;11.20;99.90;;;;;;5095853;28;20486;-56
2023/03/23 10:22:32;;;;;;;11.13;1.75;;;11.40;99.90;;;;;;5107352;28;20040;-57
2023/03/23 10:25:23;;;;;;;11.13;1.50;;;11.80;99.90;;;;;;5107409;28;20447;-57
2023/03/23 10:28:07;;;;;;;15.40;1.95;;;11.80;99.90;;;;;;5103023;28;20036;-56
2023/03/23 10:30:38;;;;;;;13.57;1.48;;;12.00;99.90;;;;;;5091831;28;20375;-57
2023/03/23 10:33:42;;;;;;;23.40;2.55;;;12.20;99.90;;;;;;5098148;28;20541;-57
2023/03/23 10:36:30;;;;;;;10.85;1.98;;;12.30;99.90;;;;;;5105790;28;20047;-58
2023/03/23 10:39:19;;;;;;;12.52;2.25;;;12.40;99.90;;;;;;5104452;28;20039;-57
2023/03/23 10:41:46;;;;;;;13.73;1.85;;;12.40;99.90;;;;;;5088217;28;20044;-57
2023/03/23 10:44:21;;;;;;;12.95;2.03;;;12.50;99.90;;;;;;5109155;28;20074;-58
2023/03/23 10:46:59;;;;;;;12.52;2.65;;;12.60;99.90;;;;;;5092889;28;20407;-60
2023/03/23 10:49:46;;;;;;;14.38;2.10;;;12.60;99.90;;;;;;5103763;28;20036;-59
2023/03/23 10:52:16;;;;;;;12.15;2.58;;;12.60;99.90;;;;;;5109500;28;20048;-57
2023/03/23 10:55:16;;;;;;;18.10;2.13;;;12.40;99.90;;;;;;5074537;28;20040;-56
2023/03/23 10:57:44;;;;;;;;;;;12.20;99.90;;;;;;5074915;28;20059;-57
2023/03/23 11:00:14;;;;;;;15.07;2.75;;;12.00;99.90;;;;;;5088137;28;20511;-56
2023/03/23 11:02:45;;;;;;;13.30;1.92;;;11.80;99.90;;;;;;5107193;28;20531;-56
2023/03/23 11:05:23;;;;;;;9.90;1.52;;;11.50;99.90;;;;;;5108878;28;20044;-57
2023/03/23 11:07:55;;;;;;;9.15;1.35;;;11.40;99.90;;;;;;5105591;28;20425;-56
2023/03/23 11:10:24;;;;;;;18.27;2.65;;;11.30;99.90;;;;;;5109320;28;20036;-57
2023/03/23 11:12:52;;;;;;;8.57;1.60;;;11.40;99.90;;;;;;5090645;28;20594;-57
2023/03/23 11:15:36;;;;;;;18.17;2.20;;;11.40;99.90;;;;;;5109275;28;20039;-56
2023/03/23 11:18:13;;;;;;;14.90;2.13;;;11.70;99.90;;;;;;5090894;28;20395;-56
2023/03/23 11:20:46;;;;;;;15.70;1.55;;;11.90;99.90;;;;;;5103504;28;20048;-57
2023/03/23 11:23:32;;;;;;;15.95;2.92;;;12.20;99.90;;;;;;5098557;28;20044;-56
2023/03/23 11:26:16;;;;;;;18.65;3.03;;;12.50;99.90;;;;;;5108924;28;20048;-56
2023/03/23 11:28:53;;;;;;;12.55;1.90;;;12.80;99.90;;;;;;5108273;28;20043;-56
2023/03/23 11:31:28;;;;;;;13.85;1.88;;;13.10;99.90;;;;;;5090674;28;20046;-60
2023/03/23 11:34:03;;;;;;;10.30;1.75;;;13.40;99.90;;;;;;5101527;28;20483;-57
2023/03/23 11:36:34;;;;;;;16.25;3.90;;;13.70;99.90;;;;;;5104819;28;20035;-57
2023/03/23 11:39:05;;;;;;;17.65;3.38;;;13.60;99.90;;;;;;5108405;28;20506;-63
2023/03/23 11:41:35;;;;;;;17.02;1.95;;;13.70;99.90;;;;;;5108554;28;20055;-60
2023/03/23 11:44:11;;;;;;;9.88;1.65;;;13.70;99.90;;;;;;5090237;28;20047;-58
2023/03/23 11:47:01;;;;;;;9.55;1.70;;;13.90;99.90;;;;;;5089803;28;20043;-60
2023/03/23 11:49:46;;;;;;;16.67;2.50;;;14.00;99.90;;;;;;5107108;28;20450;-61
2023/03/23 11:52:37;;;;;;;16.42;2.83;;;14.20;99.90;;;;;;5090284;28;20044;-60
2023/03/23 11:55:13;;;;;;;14.45;2.03;;;14.40;99.90;;;;;;5090091;28;20051;-57
2023/03/23 11:57:43;;;;;;;11.18;1.95;;;14.40;99.90;;;;;;5095277;28;20052;-60
2023/03/23 12:00:21;;;;;;;18.67;2.28;;;14.20;99.90;;;;;;5094558;28;20479;-59
2023/03/23 12:03:06;;;;;;;17.48;3.50;;;14.30;99.90;;;;;;5099423;28;20487;-59
2023/03/23 12:05:47;;;;;;;13.95;2.08;;;14.60;99.90;;;;;;5103413;28;20383;-57
2023/03/23 12:08:22;;;;;;;12.77;1.65;;;14.60;99.90;;;;;;5097235;28;20035;-59
2023/03/23 12:10:58;;;;;;;11.40;2.15;;;15.20;99.90;;;;;;5104770;28;20044;-59
2023/03/23 12:13:34;;;;;;;10.70;1.83;;;15.60;99.90;;;;;;5089976;28;20537;-59
2023/03/23 12:16:17;;;;;;;6.20;1.50;;;15.60;99.90;;;;;;5098260;28;20043;-57
2023/03/23 12:18:51;;;;;;;7.55;1.38;;;16.20;99.90;;;;;;5090851;28;20059;-58
2023/03/23 12:21:57;;;;;;;8.00;1.10;;;16.50;99.90;;;;;;5109549;28;20047;-60
2023/03/23 12:24:46;;;;;;;7.85;1.10;;;16.50;99.90;;;;;;5087845;28;20052;-58
2023/03/23 12:27:29;;;;;;;6.28;1.25;;;16.30;99.90;;;;;;5103080;28;20044;-59
2023/03/23 12:30:09;;;;;;;9.35;1.45;;;15.70;99.90;;;;;;5090698;28;20410;-58
2023/03/23 12:33:00;;;;;;;10.75;1.58;;;15.40;99.90;;;;;;5092758;28;20403;-59
2023/03/23 12:35:55;;;;;;;10.70;1.60;;;15.50;99.90;;;;;;5085652;28;20081;-59
2023/03/23 12:38:49;;;;;;;12.32;1.67;;;15.40;99.90;;;;;;5097014;28;20059;-59
2023/03/23 12:41:41;;;;;;;14.35;3.10;;;15.40;99.90;;;;;;5080127;28;20044;-58
2023/03/23 12:44:14;;;;;;;6.75;1.40;;;16.00;99.90;;;;;;5107881;28;20050;-58
2023/03/23 12:46:50;;;;;;;15.18;2.05;;;16.00;99.90;;;;;;5111519;28;20048;-58
2023/03/23 12:49:24;;;;;;;9.00;1.77;;;16.40;99.90;;;;;;5093886;28;20047;-58
2023/03/23 12:52:26;;;;;;;10.25;2.13;;;16.80;99.90;;;;;;5101409;28;20051;-60
2023/03/23 12:55:07;;;;;;;13.07;1.90;;;17.10;99.90;;;;;;5052284;28;20404;-60
2023/03/23 12:57:59;;;;;;;11.82;1.30;;;16.70;99.90;;;;;;5108126;28;20048;-58
2023/03/23 13:00:54;;;;;;;6.47;1.50;;;16.30;99.90;;;;;;5100242;28;20051;-59
2023/03/23 13:03:24;;;;;;;8.70;1.27;;;15.80;99.90;;;;;;5083637;28;20058;-58
2023/03/23 13:05:57;;;;;;;11.48;2.00;;;15.80;99.90;;;;;;5111921;28;20047;-59
2023/03/23 13:08:33;;;;;;;9.15;1.10;;;15.90;99.90;;;;;;5106630;28;20052;-58
2023/03/23 13:11:04;;;;;;;10.57;1.83;;;16.00;99.90;;;;;;5108702;28;20503;-58
2023/03/23 13:13:47;;;;;;;10.13;1.40;;;15.80;99.90;;;;;;5108185;28;20051;-58
2023/03/23 13:16:22;;;;;;;11.82;1.90;;;15.80;99.90;;;;;;5111724;28;20043;-61
2023/03/23 13:19:13;;;;;;;10.45;1.70;;;16.10;99.90;;;;;;5111249;28;20050;-59
2023/03/23 13:21:40;;;;;;;12.32;3.00;;;16.40;99.90;;;;;;5093450;28;20040;-58
2023/03/23 13:24:10;;;;;;;11.90;1.65;;;17.30;99.90;;;;;;5106993;28;20040;-58
2023/03/23 13:26:40;;;;;;;11.27;2.33;;;17.30;99.90;;;;;;5111644;28;20036;-58
2023/03/23 13:29:13;;;;;;;;;;;17.60;98.90;;;;;;5111388;28;20035;-60